EW6466 Weather Reports


Display with metric or nautical units.
time (UTC)temp
F
wind
direction
speed
MPH
gust
MPH
rain 1hr
in
rain 24hr
in
rain mn
in
humidity
%
barometer
mb
20240227230013 82 170 0.0 4.0 0.00 0.00 0.00 53 1004.2
20240227224512 83 175 1.0 6.0 0.00 0.00 0.00 51 1004.3
20240227223013 84 178 1.0 5.0 0.00 0.00 0.00 50 1004.0
20240227221513 84 161 1.0 5.0 0.00 0.00 0.00 49 1003.9
20240227220011 85 208 2.0 7.0 0.00 0.00 0.00 49 1004.1
20240227214510 86 168 5.0 10.0 0.00 0.00 0.00 48 1004.1
20240227213016 86 194 4.0 10.0 0.00 0.00 0.00 48 1004.0
20240227211507 85 169 5.0 8.0 0.00 0.00 0.00 50 1004.0
20240227210009 85 217 2.0 8.0 0.00 0.00 0.00 49 1004.2
20240227204505 86 195 3.0 10.0 0.00 0.00 0.00 51 1004.3
20240227203002 85 176 3.0 8.0 0.00 0.00 0.00 53 1004.2
20240227201600 85 183 3.0 8.0 0.00 0.00 0.00 52 1004.5
20240227200057 83 202 2.0 7.0 0.00 0.00 0.00 55 1004.7
20240227194606 82 233 4.0 10.0 0.00 0.00 0.00 57 1005.2
20240227193050 81 232 5.0 10.0 0.00 0.00 0.00 60 1005.5
20240227191549 79 197 5.0 9.0 0.00 0.00 0.00 65 1005.6
20240227190041 77 218 3.0 7.0 0.00 0.00 0.00 70 1005.9
20240227184538 75 165 3.0 9.0 0.00 0.00 0.00 73 1006.1
20240227183042 74 170 4.0 8.0 0.00 0.00 0.00 74 1006.5
20240227181539 71 201 5.0 9.0 0.00 0.00 0.00 82 1006.6
20240227180032 70 173 4.0 8.0 0.00 0.00 0.00 83 1006.9
20240227174531 69 214 4.0 9.0 0.00 0.00 0.00 86 1007.0
20240227173032 68 168 4.0 7.0 0.00 0.00 0.00 87 1007.2
20240227171535 68 211 5.0 10.0 0.00 0.00 0.00 88 1007.4
20240227170028 68 209 5.0 8.0 0.00 0.00 0.00 88 1007.2
20240227164527 67 174 6.0 10.0 0.00 0.00 0.00 91 1007.0
20240227163029 67 180 3.0 8.0 0.00 0.00 0.00 92 1007.2
20240227161527 66 197 5.0 8.0 0.00 0.00 0.00 94 1007.1
20240227160028 66 177 4.0 9.0 0.00 0.00 0.00 95 1007.1
20240227154525 65 210 2.0 6.0 0.00 0.00 0.00 95 1007.3
20240227153026 65 184 2.0 6.0 0.00 0.00 0.00 95 1007.2
20240227151525 64 185 2.0 8.0 0.00 0.00 0.00 95 1007.2
20240227150024 64 207 1.0 5.0 0.00 0.00 0.00 95 1007.3
20240227144523 64 221 3.0 7.0 0.00 0.00 0.00 95 1007.5
20240227143024 64 212 3.0 7.0 0.00 0.00 0.00 94 1007.3
20240227141526 64 207 2.0 6.0 0.00 0.00 0.00 94 1006.6
20240227140020 64 182 2.0 6.0 0.00 0.00 0.00 94 1006.5
20240227134522 64 211 3.0 7.0 0.00 0.00 0.00 94 1006.4
20240227133022 64 183 0.0 6.0 0.00 0.00 0.00 94 1006.1
20240227131521 64 175 3.0 8.0 0.00 0.00 0.00 94 1006.0
20240227130022 64 226 3.0 6.0 0.00 0.00 0.00 93 1006.2
20240227124517 64 194 1.0 5.0 0.00 0.00 0.00 93 1006.0
20240227123017 64 194 3.0 9.0 0.00 0.00 0.00 93 1005.9
20240227121535 63 198 2.0 5.0 0.00 0.00 0.00 92 1005.8
20240227120014 63 233 1.0 3.0 0.00 0.00 0.00 91 1005.8
20240227114520 63 233 1.0 3.0 0.00 0.00 0.00 90 1005.4
20240227113017 63 233 0.0 0.0 0.00 0.00 0.00 88 1005.5
20240227111510 64 233 0.0 0.0 0.00 0.00 0.00 88 1005.4
20240227110014 64 233 0.0 2.0 0.00 0.00 0.00 88 1005.5
20240227104506 64 233 0.0 1.0 0.00 0.00 0.00 87 1005.6
20240227103004 65 233 0.0 1.0 0.00 0.00 0.00 86 1005.6
20240227101504 66 233 0.0 2.0 0.00 0.00 0.00 87 1005.8
20240227100101 66 233 0.0 2.0 0.00 0.00 0.00 87 1005.8
20240227094602 66 233 0.0 2.0 0.00 0.00 0.00 87 1006.1
20240227093056 66 233 0.0 2.0 0.00 0.00 0.00 86 1006.3
20240227091556 66 233 0.0 1.0 0.00 0.00 0.00 83 1006.5
20240227090049 67 233 0.0 1.0 0.00 0.00 0.00 82 1006.6
20240227084548 67 233 0.0 1.0 0.00 0.00 0.00 82 1006.8
20240227083045 68 233 0.0 0.0 0.00 0.00 0.00 80 1006.9
20240227081541 68 233 0.0 3.0 0.00 0.00 0.00 80 1007.3
20240227080040 69 221 0.0 2.0 0.00 0.00 0.00 79 1007.3
20240227074536 69 207 0.0 2.0 0.00 0.00 0.00 77 1007.6
20240227073042 70 205 0.0 1.0 0.00 0.00 0.00 77 1007.6
20240227071545 70 206 0.0 2.0 0.00 0.00 0.00 76 1007.7
20240227070030 70 206 0.0 2.0 0.00 0.00 0.00 74 1007.9
20240227064527 70 204 0.0 2.0 0.00 0.00 0.00 74 1008.2
20240227063026 71 216 0.0 4.0 0.00 0.00 0.00 73 1008.3
20240227061527 71 273 0.0 4.0 0.00 0.00 0.00 73 1008.5
20240227060030 71 144 1.0 3.0 0.00 0.00 0.00 72 1008.8
20240227054524 70 170 1.0 7.0 0.00 0.00 0.00 74 1009.1
20240227053021 69 30 0.0 5.0 0.00 0.00 0.00 77 1009.3
20240227051521 67 340 0.0 3.0 0.00 0.00 0.00 77 1009.6
20240227050019 66 342 0.0 2.0 0.00 0.00 0.00 78 1009.6
20240227044520 66 330 0.0 3.0 0.00 0.00 0.00 75 1009.7
20240227043022 66 335 0.0 2.0 0.00 0.00 0.00 73 1009.8
20240227041518 66 335 0.0 2.0 0.00 0.00 0.00 74 1009.8
20240227040017 66 335 0.0 1.0 0.00 0.00 0.00 73 1009.8
20240227034517 67 335 0.0 1.0 0.00 0.00 0.00 70 1009.9
20240227033018 68 335 0.0 1.0 0.00 0.00 0.00 68 1009.7
20240227031517 69 335 0.0 1.0 0.00 0.00 0.00 66 1009.5
20240227030017 70 335 0.0 2.0 0.00 0.00 0.00 65 1009.5
20240227024515 71 335 0.0 1.0 0.00 0.00 0.00 62 1009.4
20240227023014 73 335 0.0 0.0 0.00 0.00 0.00 59 1009.2
20240227021514 74 335 0.0 0.0 0.00 0.00 0.00 58 1009.1
20240227020014 76 335 0.0 2.0 0.00 0.00 0.00 55 1008.9
20240227014516 77 335 1.0 4.0 0.00 0.00 0.00 55 1008.9
20240227013017 78 234 1.0 2.0 0.00 0.00 0.00 53 1008.7
20240227011514 79 213 0.0 3.0 0.00 0.00 0.00 51 1008.5
20240227010015 80 186 2.0 6.0 0.00 0.00 0.00 50 1008.5
20240227004530 81 220 2.0 11.0 0.00 0.00 0.00 49 1008.6
20240227003010 81 146 4.0 11.0 0.00 0.00 0.00 48 1008.4
20240227001520 82 150 5.0 11.0 0.00 0.00 0.00 45 1008.3
20240227000010 83 165 5.0 10.0 0.00 0.00 0.00 43 1008.4
20240226234517 84 188 4.0 10.0 0.00 0.00 0.00 39 1008.2
20240226233008 85 209 6.0 13.0 0.00 0.00 0.00 38 1008.1
20240226231507 86 171 4.0 16.0 0.00 0.00 0.00 39 1008.2